Time;durP1;ratioP1;P1;durP2;ratioP2;P2;SDS_P1;SDS_P2;PMS_P1;PMS_P2;Temp;Humidity;BMP_temperature;BMP_pressure;BME280_temperature;BME280_humidity;BME280_pressure;Samples;Min_cycle;Max_cycle;Signal;HPM_P1;HPM_P2
2022/08/23 00:01:09;;;;;;;4.00;3.30;;;;;;;22.12;53.47;99263.28;4925773;29;20456;-74
2022/08/23 00:03:34;;;;;;;4.73;3.83;;;;;;;22.06;53.97;99264.84;4926952;29;20444;-75
2022/08/23 00:06:00;;;;;;;5.13;4.47;;;;;;;22.00;53.94;99270.06;4929202;29;20454;-74
2022/08/23 00:08:26;;;;;;;4.83;3.80;;;;;;;21.95;54.19;99275.13;4925876;29;20207;-74
2022/08/23 00:10:51;;;;;;;5.00;3.47;;;;;;;21.90;54.33;99280.16;4925760;29;20480;-74
2022/08/23 00:13:17;;;;;;;4.10;3.40;;;;;;;21.86;54.58;99277.03;4926499;29;20895;-74
2022/08/23 00:15:42;;;;;;;3.70;3.20;;;;;;;21.75;54.79;99278.28;4925758;29;20212;-74
2022/08/23 00:18:07;;;;;;;3.77;3.50;;;;;;;21.64;55.41;99279.50;4923062;29;20904;-74
2022/08/23 00:20:33;;;;;;;3.80;3.03;;;;;;;21.59;55.50;99267.69;4928152;29;20215;-74
2022/08/23 00:22:59;;;;;;;4.30;4.00;;;;;;;21.56;55.61;99273.41;4925670;29;20303;-74
2022/08/23 00:25:24;;;;;;;5.13;3.63;;;;;;;21.53;55.96;99271.09;4926483;29;20471;-74
2022/08/23 00:27:49;;;;;;;5.23;4.27;;;;;;;21.49;56.26;99267.91;4925880;29;20203;-74
2022/08/23 00:30:15;;;;;;;5.00;4.27;;;;;;;21.42;56.64;99270.47;4926825;29;20575;-74
2022/08/23 00:32:42;;;;;;;3.50;3.20;;;;;;;21.33;56.78;99278.66;4925320;29;20587;-74
2022/08/23 00:35:10;;;;;;;5.87;4.80;;;;;;;21.23;57.25;99273.53;4928199;29;20209;-74
2022/08/23 00:37:36;;;;;;;4.10;3.00;;;;;;;21.17;57.24;99268.88;4925301;29;20477;-74
2022/08/23 00:40:04;;;;;;;3.80;3.40;;;;;;;21.10;57.34;99268.75;4928162;29;20983;-74
2022/08/23 00:48:37;;;;;;;4.17;3.13;;;;;;;20.96;57.64;99270.31;4926055;29;20947;-74
2022/08/23 00:51:21;;;;;;;5.70;4.47;;;;;;;20.94;57.84;99266.97;4926735;29;21292;-74
2022/08/23 00:53:54;;;;;;;4.60;3.70;;;;;;;20.91;57.92;99263.84;4925595;29;20455;-74
2022/08/23 00:56:23;;;;;;;3.80;3.50;;;;;;;20.86;58.00;99271.53;4925922;29;21024;-74
2022/08/23 00:58:49;;;;;;;4.43;4.03;;;;;;;20.79;57.96;99274.03;4922355;29;20579;-74
2022/08/23 01:01:15;;;;;;;3.87;3.57;;;;;;;20.68;58.30;99267.22;4907907;29;21184;-74
2022/08/23 01:03:44;;;;;;;4.50;4.10;;;;;;;20.63;58.56;99261.59;4908780;29;20628;-74
2022/08/23 01:06:20;;;;;;;4.80;4.17;;;;;;;20.53;58.80;99267.09;4910407;29;20453;-74
2022/08/23 01:08:51;;;;;;;4.50;4.10;;;;;;;20.41;59.03;99268.41;4910000;29;20466;-74
2022/08/23 01:11:27;;;;;;;4.10;3.70;;;;;;;20.32;59.25;99272.09;4926457;29;20513;-74
2022/08/23 01:13:57;;;;;;;4.53;3.33;;;;;;;20.31;59.25;99267.78;4927523;29;20468;-74
2022/08/23 01:16:35;;;;;;;6.67;3.83;;;;;;;20.34;59.09;99272.78;4925361;29;20989;-76
2022/08/23 01:19:03;;;;;;;3.70;3.33;;;;;;;20.34;59.06;99270.09;4922640;29;21584;-75
2022/08/23 01:21:39;;;;;;;4.47;4.07;;;;;;;20.32;59.09;99280.09;4926575;29;20678;-74
2022/08/23 01:24:05;;;;;;;4.23;3.83;;;;;;;20.27;59.50;99287.78;4925443;29;20459;-74
2022/08/23 01:26:34;;;;;;;4.63;3.90;;;;;;;20.23;59.53;99287.28;4910386;29;20478;-74
2022/08/23 01:29:04;;;;;;;4.43;3.77;;;;;;;20.22;59.68;99290.09;4905047;29;20460;-74
2022/08/23 01:31:30;;;;;;;5.20;4.70;;;;;;;20.23;59.86;99292.63;4925720;29;20512;-74
2022/08/23 01:33:58;;;;;;;4.93;4.50;;;;;;;20.28;60.27;99292.09;4921063;29;20508;-74
2022/08/23 01:36:24;;;;;;;3.93;3.50;;;;;;;20.26;60.54;99288.78;4924968;29;20700;-74
2022/08/23 01:38:51;;;;;;;4.23;3.93;;;;;;;20.19;60.27;99285.94;4908578;29;20465;-74
2022/08/23 01:41:18;;;;;;;4.30;3.90;;;;;;;20.16;60.47;99285.44;4925048;29;20576;-74
2022/08/23 01:43:44;;;;;;;4.63;4.20;;;;;;;20.14;60.40;99284.78;4907517;29;20855;-74
2022/08/23 01:46:16;;;;;;;8.87;5.20;;;;;;;20.13;60.15;99286.63;4925819;29;20976;-74
2022/08/23 01:48:45;;;;;;;6.03;4.30;;;;;;;20.11;60.11;99286.78;4917803;29;20319;-74
2022/08/23 01:51:11;;;;;;;5.63;3.93;;;;;;;20.08;60.23;99289.78;4906628;29;20491;-74
2022/08/23 01:53:37;;;;;;;5.60;3.50;;;;;;;20.07;60.08;99284.63;4908748;29;20449;-74
2022/08/23 01:56:04;;;;;;;9.43;4.07;;;;;;;19.99;60.24;99289.97;4907933;29;20498;-74
2022/08/23 01:58:33;;;;;;;4.73;4.33;;;;;;;19.89;60.55;99287.44;4908479;29;21230;-74
2022/08/23 02:01:00;;;;;;;4.60;3.90;;;;;;;19.84;60.81;99281.75;4925851;29;20837;-74
2022/08/23 02:03:27;;;;;;;3.40;3.10;;;;;;;19.78;60.86;99279.78;4907128;29;20523;-74
2022/08/23 02:05:54;;;;;;;4.50;3.80;;;;;;;19.76;60.94;99285.25;4925573;29;20461;-74
2022/08/23 02:11:14;;;;;;;3.60;3.30;;;;;;;19.77;60.87;99278.13;4944425;23;20511;-79
2022/08/23 02:13:40;;;;;;;6.83;4.40;;;;;;;19.76;60.58;99281.75;4933020;29;20640;-79
2022/08/23 02:16:08;;;;;;;5.03;3.83;;;;;;;19.76;60.57;99279.91;4956180;28;20473;-79
2022/08/23 02:18:33;;;;;;;4.90;4.30;;;;;;;19.73;60.79;99288.25;4947976;28;21347;-79
2022/08/23 02:20:59;;;;;;;4.67;4.20;;;;;;;19.61;61.02;99292.22;4957287;28;20824;-79
2022/08/23 02:23:25;;;;;;;4.20;3.67;;;;;;;19.50;61.43;99298.69;4960605;28;20201;-79
2022/08/23 02:25:51;;;;;;;4.63;4.10;;;;;;;19.40;61.62;99304.13;4959233;28;20454;-79
2022/08/23 02:28:23;;;;;;;5.23;4.30;;;;;;;19.34;61.72;99307.44;4954312;28;20432;-81
2022/08/23 02:30:52;;;;;;;5.17;4.67;;;;;;;19.27;61.98;99311.72;4971293;28;20495;-81
2022/08/23 02:33:18;;;;;;;4.97;4.40;;;;;;;19.24;62.04;99307.56;4956648;28;20458;-79
2022/08/23 02:35:43;;;;;;;5.17;4.77;;;;;;;19.22;62.17;99306.88;4974781;28;20619;-80
2022/08/23 02:38:11;;;;;;;4.80;4.40;;;;;;;19.20;62.24;99306.22;4969452;28;20289;-80
2022/08/23 02:40:38;;;;;;;4.20;3.70;;;;;;;19.24;62.48;99307.56;4957316;28;20824;-80
2022/08/23 02:43:05;;;;;;;4.07;3.53;;;;;;;19.26;62.36;99304.75;4960435;28;20466;-80
2022/08/23 02:45:31;;;;;;;5.70;4.53;;;;;;;19.26;62.15;99310.06;4963274;28;20459;-80
2022/08/23 02:47:58;;;;;;;5.90;4.83;;;;;;;19.26;62.36;99314.56;4973632;28;20460;-80
2022/08/23 02:50:30;;;;;;;5.37;4.87;;;;;;;19.27;62.33;99317.06;4980546;28;20726;-80
2022/08/23 02:52:56;;;;;;;5.33;4.33;;;;;;;19.27;62.52;99322.38;4976771;28;20480;-80
2022/08/23 02:55:22;;;;;;;5.20;4.70;;;;;;;19.28;62.36;99312.56;4957164;28;20661;-80
2022/08/23 02:57:48;;;;;;;5.87;3.87;;;;;;;19.24;62.71;99320.88;4960408;28;20580;-80
2022/08/23 03:00:15;;;;;;;5.20;4.63;;;;;;;19.23;62.41;99319.22;4957065;28;20695;-80
2022/08/23 03:02:41;;;;;;;4.50;4.10;;;;;;;19.22;62.69;99324.69;4959125;28;20485;-80
2022/08/23 03:05:09;;;;;;;5.13;4.73;;;;;;;19.14;63.14;99319.34;4952705;28;20201;-80
2022/08/23 03:07:38;;;;;;;4.70;4.30;;;;;;;19.07;63.24;99321.81;4960977;28;20211;-80
2022/08/23 03:10:05;;;;;;;5.30;4.00;;;;;;;19.04;63.45;99324.78;4965072;28;21026;-80
2022/08/23 03:12:32;;;;;;;4.80;4.40;;;;;;;19.00;63.54;99320.78;4974665;28;20484;-80
2022/08/23 03:14:58;;;;;;;5.20;4.30;;;;;;;18.96;63.64;99320.25;4963376;28;20527;-80
2022/08/23 03:17:26;;;;;;;4.57;4.07;;;;;;;18.95;63.56;99323.06;4953655;28;20198;-80
2022/08/23 03:19:52;;;;;;;5.00;4.60;;;;;;;18.90;63.73;99331.56;4958175;28;20454;-80
2022/08/23 03:22:18;;;;;;;4.57;4.27;;;;;;;18.85;63.81;99327.66;4960343;28;20225;-80
2022/08/23 03:24:44;;;;;;;6.30;4.90;;;;;;;18.78;63.93;99330.97;4957691;28;20712;-80
2022/08/23 03:27:10;;;;;;;6.10;4.70;;;;;;;18.77;63.89;99336.47;4959286;28;20461;-80
2022/08/23 03:29:37;;;;;;;4.73;3.90;;;;;;;18.76;63.86;99332.94;4957985;28;20452;-80
2022/08/23 03:32:04;;;;;;;4.77;4.30;;;;;;;18.78;63.94;99338.94;4959999;28;20476;-80
2022/08/23 03:34:33;;;;;;;5.13;4.63;;;;;;;18.78;63.72;99344.25;4970005;28;20464;-80
2022/08/23 03:36:59;;;;;;;5.97;4.43;;;;;;;18.79;63.66;99340.63;4941161;28;20642;-80
2022/08/23 03:39:29;;;;;;;7.00;5.20;;;;;;;18.81;63.77;99336.97;4970437;28;20464;-81
2022/08/23 03:41:57;;;;;;;4.97;4.50;;;;;;;18.81;63.49;99337.78;4948478;28;20475;-81
2022/08/23 03:44:25;;;;;;;6.43;4.67;;;;;;;18.82;63.65;99344.78;4945232;28;20465;-81
2022/08/23 03:46:51;;;;;;;5.50;4.50;;;;;;;18.83;63.42;99338.47;4972513;28;20466;-79
2022/08/23 03:49:16;;;;;;;5.00;4.60;;;;;;;18.82;63.37;99350.09;4962000;28;20297;-79
2022/08/23 03:51:53;;;;;;;4.43;4.03;;;;;;;18.80;63.37;99352.09;4958777;28;20735;-79
2022/08/23 03:54:19;;;;;;;5.17;4.27;;;;;;;18.76;63.50;99348.06;4958699;28;20461;-79
2022/08/23 03:56:54;;;;;;;5.87;4.83;;;;;;;18.70;63.76;99349.50;4973400;28;20685;-79
2022/08/23 03:59:20;;;;;;;5.30;4.77;;;;;;;18.62;64.03;99365.41;4973457;28;20547;-79
2022/08/23 04:01:46;;;;;;;5.83;4.70;;;;;;;18.51;64.27;99366.50;4951061;28;20570;-79
2022/08/23 04:04:11;;;;;;;7.33;6.13;;;;;;;18.45;65.00;99368.94;4956591;28;20489;-79
2022/08/23 04:06:47;;;;;;;6.37;5.90;;;;;;;18.33;65.19;99365.66;4974974;28;20209;-79
2022/08/23 04:09:14;;;;;;;5.80;5.13;;;;;;;18.29;65.32;99367.81;4972530;28;20463;-78
2022/08/23 04:11:40;;;;;;;5.03;4.60;;;;;;;18.26;65.25;99370.78;4971037;28;20485;-79
2022/08/23 04:14:07;;;;;;;5.53;5.07;;;;;;;18.24;65.51;99364.78;4960841;28;20906;-79
2022/08/23 04:16:36;;;;;;;6.23;4.83;;;;;;;18.25;65.64;99368.25;4958393;28;20465;-79
2022/08/23 04:19:04;;;;;;;5.63;4.80;;;;;;;18.26;65.86;99373.44;4956264;28;21084;-79
2022/08/23 04:21:31;;;;;;;5.27;4.77;;;;;;;18.27;65.59;99371.59;4953181;28;20852;-79
2022/08/23 04:23:56;;;;;;;6.00;4.83;;;;;;;18.26;65.62;99378.75;4971748;28;20584;-79
2022/08/23 04:26:22;;;;;;;5.00;4.60;;;;;;;18.26;65.75;99370.78;4955015;28;20515;-79
2022/08/23 04:28:48;;;;;;;4.70;4.30;;;;;;;18.26;65.65;99370.78;4958743;28;20255;-79
2022/08/23 04:31:16;;;;;;;5.17;4.73;;;;;;;18.28;65.72;99373.28;4956244;28;20225;-80
2022/08/23 04:33:43;;;;;;;6.40;5.80;;;;;;;18.30;66.09;99382.75;4951936;28;20564;-79
2022/08/23 04:36:11;;;;;;;5.90;5.30;;;;;;;18.29;66.40;99381.09;4956162;28;20202;-79
2022/08/23 04:38:37;;;;;;;7.60;5.23;;;;;;;18.29;66.48;99380.28;4958868;28;20850;-79
2022/08/23 04:43:50;;;;;;;6.60;5.57;;;;;;;18.22;66.33;99385.34;4979872;28;20459;-81
2022/08/23 04:46:16;;;;;;;6.63;4.43;;;;;;;18.20;66.28;99379.38;4956447;28;20452;-80
2022/08/23 04:48:55;;;;;;;5.33;4.27;;;;;;;18.18;66.27;99383.16;4957607;28;20316;-80
2022/08/23 04:51:21;;;;;;;5.97;4.80;;;;;;;18.14;66.01;99385.28;4957681;28;20479;-80
2022/08/23 04:53:47;;;;;;;9.97;4.93;;;;;;;18.11;66.20;99377.59;4973678;28;21012;-79
2022/08/23 04:56:38;;;;;;;7.50;4.77;;;;;;;18.10;66.23;99391.91;4953086;28;20536;-79
2022/08/23 04:59:04;;;;;;;5.67;5.17;;;;;;;18.09;66.36;99396.38;4943091;28;21075;-79
2022/08/23 05:01:30;;;;;;;6.00;5.40;;;;;;;18.13;66.53;99391.59;4964174;28;20481;-79
2022/08/23 05:03:56;;;;;;;6.33;5.00;;;;;;;18.12;66.44;99393.41;4950227;28;20262;-80
2022/08/23 05:06:24;;;;;;;5.20;4.80;;;;;;;18.18;66.33;99409.75;4954709;28;20284;-80
2022/08/23 05:08:50;;;;;;;5.80;4.67;;;;;;;18.24;66.03;99399.34;4970953;28;20460;-80
2022/08/23 05:11:17;;;;;;;5.53;4.63;;;;;;;18.48;65.13;99400.56;4971326;28;20454;-79
2022/08/23 05:13:43;;;;;;;4.93;4.43;;;;;;;18.85;64.53;99410.16;4971274;28;20214;-79
2022/08/23 05:16:09;;;;;;;10.13;4.53;;;;;;;19.27;63.12;99404.09;4958003;28;20836;-79
2022/08/23 05:18:41;;;;;;;4.87;4.23;;;;;;;19.73;61.72;99410.00;4951831;28;20462;-80
2022/08/23 05:21:07;;;;;;;4.83;4.33;;;;;;;20.16;60.55;99413.44;4974025;28;20488;-79
2022/08/23 05:23:33;;;;;;;9.00;5.90;;;;;;;20.52;59.69;99413.97;4974191;28;20455;-80
2022/08/23 05:26:02;;;;;;;6.43;5.27;;;;;;;20.83;58.62;99416.03;4952951;28;20550;-79
2022/08/23 05:28:38;;;;;;;4.37;3.90;;;;;;;21.15;57.59;99409.81;4958828;28;20473;-80
2022/08/23 05:31:08;;;;;;;4.87;3.97;;;;;;;21.43;56.84;99421.75;4959829;28;20490;-80
2022/08/23 05:33:43;;;;;;;7.15;5.90;;;;;;;21.90;55.00;99417.41;4968207;28;20494;-80
2022/08/23 05:36:11;;;;;;;5.27;4.60;;;;;;;22.17;54.46;99420.56;4954663;28;20204;-80
2022/08/23 05:38:38;;;;;;;4.87;4.47;;;;;;;22.36;53.85;99414.81;4964263;28;20494;-81
2022/08/23 05:41:05;;;;;;;4.80;4.30;;;;;;;22.47;53.56;99418.91;4962120;28;20959;-80
2022/08/23 05:43:32;;;;;;;4.30;3.90;;;;;;;22.36;53.65;99425.50;4952580;28;20521;-81
2022/08/23 05:46:01;;;;;;;5.10;4.60;;;;;;;22.13;54.08;99430.78;4953726;28;20456;-81
2022/08/23 05:48:27;;;;;;;5.27;4.77;;;;;;;22.14;53.91;99427.09;4955084;28;20468;-80
2022/08/23 05:50:54;;;;;;;5.17;4.57;;;;;;;22.21;53.74;99429.94;4953323;28;20486;-78
2022/08/23 05:53:20;;;;;;;5.60;5.20;;;;;;;22.22;53.49;99432.44;4943690;28;20483;-78
2022/08/23 05:55:46;;;;;;;4.80;4.33;;;;;;;22.28;53.12;99434.41;4943843;28;20263;-78
2022/08/23 05:58:16;;;;;;;5.27;4.73;;;;;;;22.33;52.84;99431.19;4964847;28;20757;-79
2022/08/23 06:00:42;;;;;;;6.47;4.53;;;;;;;22.32;52.85;99437.56;4961831;28;20481;-78
2022/08/23 06:03:08;;;;;;;7.00;4.53;;;;;;;22.25;52.82;99444.63;4965497;28;20479;-81
2022/08/23 06:05:37;;;;;;;4.60;4.20;;;;;;;22.17;52.78;99442.81;4969161;28;20192;-80
2022/08/23 06:08:03;;;;;;;4.93;4.07;;;;;;;22.20;52.74;99447.03;4948434;28;20229;-81
2022/08/23 06:10:30;;;;;;;4.90;4.30;;;;;;;22.52;52.07;99451.28;4925106;28;20880;-81
2022/08/23 06:13:02;;;;;;;9.00;4.93;;;;;;;23.03;50.77;99446.22;4944166;28;20471;-81
2022/08/23 06:15:27;;;;;;;4.70;4.03;;;;;;;23.61;49.21;99444.59;4951259;28;21061;-81
2022/08/23 06:17:53;;;;;;;5.77;4.63;;;;;;;24.23;47.85;99439.81;4942368;28;20465;-82
2022/08/23 06:20:19;;;;;;;5.00;4.53;;;;;;;24.86;46.23;99440.84;4969141;28;20202;-81
2022/08/23 06:22:56;;;;;;;4.80;4.40;;;;;;;25.51;44.75;99440.69;4951697;28;20520;-81
2022/08/23 06:25:22;;;;;;;4.27;3.80;;;;;;;25.97;43.44;99437.41;4951684;28;20568;-81
2022/08/23 06:28:06;;;;;;;5.27;4.73;;;;;;;26.35;42.30;99444.97;4950381;28;20247;-81
2022/08/23 06:30:31;;;;;;;6.27;4.20;;;;;;;26.62;41.72;99445.88;4953364;28;21260;-81
2022/08/23 06:33:00;;;;;;;9.27;5.00;;;;;;;26.97;40.91;99440.28;4955189;28;20645;-82
2022/08/23 06:35:31;;;;;;;5.97;5.47;;;;;;;27.13;40.78;99440.69;4953512;28;20238;-81
2022/08/23 06:38:02;;;;;;;5.50;4.50;;;;;;;27.31;40.49;99441.94;4951516;28;20466;-81
2022/08/23 06:40:46;;;;;;;5.53;5.03;;;;;;;27.50;39.78;99445.63;4951697;28;20508;-81
2022/08/23 06:43:24;;;;;;;5.23;4.50;;;;;;;27.70;39.22;99440.16;4954236;28;20465;-82
2022/08/23 06:46:07;;;;;;;5.67;4.30;;;;;;;27.86;38.54;99439.72;4969101;28;20500;-82
2022/08/23 06:48:33;;;;;;;5.63;5.13;;;;;;;28.02;38.61;99446.50;4951902;28;20465;-82
2022/08/23 06:50:59;;;;;;;6.10;4.43;;;;;;;28.17;38.25;99446.22;4954610;28;20493;-82
2022/08/23 06:53:32;;;;;;;5.03;4.27;;;;;;;28.29;37.58;99449.88;4952672;28;20678;-82
2022/08/23 06:56:32;;;;;;;4.93;4.50;;;;;;;27.93;38.00;99450.50;4965976;28;20463;-82
2022/08/23 06:59:11;;;;;;;5.37;4.87;;;;;;;27.31;38.87;99455.44;4962133;28;20546;-82
2022/08/23 07:02:00;;;;;;;5.00;4.50;;;;;;;26.56;40.24;99458.31;4950142;28;20490;-81
2022/08/23 07:04:52;;;;;;;5.03;4.53;;;;;;;25.83;41.54;99474.16;4953703;28;20468;-81
2022/08/23 07:07:36;;;;;;;5.77;4.03;;;;;;;25.15;42.98;99473.97;4950289;28;20505;-81
2022/08/23 07:10:04;;;;;;;7.83;5.00;;;;;;;24.65;44.22;99481.13;4955389;28;20459;-81
2022/08/23 07:12:30;;;;;;;5.00;4.57;;;;;;;24.28;45.18;99477.66;4963648;28;20507;-82
2022/08/23 07:14:55;;;;;;;8.00;4.27;;;;;;;23.97;45.89;99484.09;4952658;28;20531;-79
2022/08/23 07:17:21;;;;;;;4.17;3.77;;;;;;;23.86;46.39;99484.56;4968016;28;20202;-81
2022/08/23 07:19:48;;;;;;;5.03;4.30;;;;;;;24.23;45.52;99483.56;4954103;28;20449;-82
2022/08/23 07:22:13;;;;;;;5.23;4.40;;;;;;;24.87;43.73;99474.75;4972397;28;20537;-82
2022/08/23 07:24:41;;;;;;;5.73;4.10;;;;;;;25.52;42.01;99478.16;4955321;28;20207;-82
2022/08/23 07:27:08;;;;;;;7.93;4.80;;;;;;;26.15;40.46;99475.38;4967685;28;20472;-82
2022/08/23 07:29:40;;;;;;;4.10;3.70;;;;;;;26.71;39.11;99477.00;4961463;28;20494;-82
2022/08/23 07:32:07;;;;;;;4.90;4.40;;;;;;;27.28;37.97;99466.66;4953576;28;20487;-83
2022/08/23 07:34:33;;;;;;;4.70;4.33;;;;;;;27.84;37.56;99471.53;4971603;28;20454;-82
2022/08/23 07:37:00;;;;;;;6.80;4.57;;;;;;;28.37;36.47;99479.34;4966749;28;20462;-82
2022/08/23 07:39:26;;;;;;;4.77;4.37;;;;;;;28.86;35.54;99466.16;4952689;28;20202;-82
2022/08/23 07:41:52;;;;;;;5.67;4.27;;;;;;;29.24;34.94;99463.34;4966871;28;20889;-82
2022/08/23 07:44:19;;;;;;;4.23;3.83;;;;;;;29.57;34.40;99467.63;4954333;28;20900;-83
2022/08/23 07:46:46;;;;;;;4.13;3.70;;;;;;;29.91;34.08;99470.78;4972106;28;20453;-82
2022/08/23 07:49:14;;;;;;;4.67;4.27;;;;;;;30.33;32.92;99470.91;4950471;28;20461;-82
2022/08/23 07:51:45;;;;;;;5.30;4.10;;;;;;;30.63;32.52;99468.16;4962547;28;20673;-82
2022/08/23 07:54:12;;;;;;;4.63;4.20;;;;;;;30.77;31.98;99466.88;4981670;28;20464;-83
2022/08/23 07:56:45;;;;;;;6.47;4.37;;;;;;;30.88;31.95;99469.91;4970248;28;20537;-82
2022/08/23 07:59:29;;;;;;;4.80;4.17;;;;;;;31.05;31.96;99465.41;4965831;28;21054;-82
2022/08/23 08:02:21;;;;;;;4.60;4.20;;;;;;;31.39;31.51;99471.94;4957272;28;21013;-82
2022/08/23 08:04:47;;;;;;;3.83;3.53;;;;;;;31.68;31.39;99477.47;4956587;28;20477;-82
2022/08/23 08:07:13;;;;;;;3.50;3.20;;;;;;;31.80;31.24;99475.53;4959907;28;20460;-82
2022/08/23 08:09:42;;;;;;;4.97;4.30;;;;;;;31.88;31.03;99475.16;4963280;28;20205;-82
2022/08/23 08:12:38;;;;;;;4.17;3.67;;;;;;;31.83;30.89;99474.22;4994042;23;20536;-95
2022/08/23 08:15:19;;;;;;;5.10;4.67;;;;;;;31.86;31.10;99474.56;4971283;28;20208;-92
2022/08/23 08:17:57;;;;;;;4.57;4.10;;;;;;;31.82;31.15;99470.69;4985730;28;21028;-94
2022/08/23 08:20:48;;;;;;;4.80;4.40;;;;;;;31.68;31.44;99466.59;4973293;28;20460;-93
2022/08/23 08:23:58;;;;;;;5.17;3.70;;;;;;;31.69;31.52;99470.97;4956008;28;21143;-92
2022/08/23 08:27:10;;;;;;;4.30;3.90;;;;;;;31.91;30.67;99473.84;4976309;28;20493;-93
2022/08/23 08:29:43;;;;;;;4.03;3.63;;;;;;;31.96;30.05;99472.09;4989266;28;21345;-92
2022/08/23 08:32:34;;;;;;;4.10;3.70;;;;;;;32.12;30.16;99472.41;4977444;28;20568;-95
2022/08/23 08:35:07;;;;;;;5.70;4.13;;;;;;;31.96;29.75;99471.28;4979125;28;20475;-94
2022/08/23 08:37:45;;;;;;;;;;;;;;;;;;;;;
2022/08/23 08:51:00;;;;;;;4.20;3.80;;;;;;;31.52;30.58;99473.59;4879456;29;20508;-93
2022/08/23 08:54:25;;;;;;;4.93;4.43;;;;;;;31.42;30.88;99476.91;4878054;29;20466;-92
2022/08/23 08:57:02;;;;;;;4.43;4.03;;;;;;;31.18;31.32;99476.03;4899823;29;20492;-93
2022/08/23 08:59:54;;;;;;;5.83;4.20;;;;;;;31.02;31.68;99474.84;4923794;29;20542;-94
2022/08/23 09:02:34;;;;;;;6.03;3.60;;;;;;;30.54;32.09;99474.97;4960540;28;20463;-92
2022/08/23 09:05:31;;;;;;;;;;;;;;;;;;;;;
2022/08/23 09:08:28;;;;;;;5.50;3.40;;;;;;;29.92;33.07;99472.44;4990581;28;20491;-92
2022/08/23 09:11:31;;;;;;;7.67;4.07;;;;;;;29.68;33.43;99477.72;5002689;28;20481;-92
2022/08/23 09:14:24;;;;;;;;;;;;;;;;;;;;;
2022/08/23 09:17:33;;;;;;;;;;;;;;;;;;;;;
2022/08/23 09:20:22;;;;;;;4.53;4.10;;;;;;;29.70;33.11;99474.78;4973402;28;20555;-92
2022/08/23 09:23:12;;;;;;;4.80;4.33;;;;;;;29.66;33.35;99474.41;4977463;28;20528;-93
2022/08/23 09:25:55;;;;;;;4.17;3.87;;;;;;;29.56;33.33;99463.25;4975556;28;20496;-91
2022/08/23 09:28:45;;;;;;;;;;;;;;;;;;;;;
2022/08/23 09:31:53;;;;;;;;;;;;;;;;;;;;;
2022/08/23 09:34:35;;;;;;;3.90;3.60;;;;;;;29.50;32.27;99469.56;4977281;28;20475;-93
2022/08/23 09:37:37;;;;;;;;;;;;;;;;;;;;;
2022/08/23 09:40:35;;;;;;;5.13;4.50;;;;;;;29.42;32.37;99469.84;4975002;28;20493;-92
2022/08/23 09:43:18;;;;;;;5.83;3.30;;;;;;;29.59;32.12;99459.25;4970981;28;21718;-93
2022/08/23 09:46:02;;;;;;;4.33;3.80;;;;;;;29.69;31.19;99465.00;4972653;28;20536;-94
2022/08/23 09:48:59;;;;;;;;;;;;;;;;;;;;;
2022/08/23 09:51:42;;;;;;;4.63;4.23;;;;;;;29.65;31.58;99459.22;4996198;28;20602;-94
2022/08/23 09:54:23;;;;;;;3.67;3.37;;;;;;;29.72;31.76;99457.25;5017361;28;20468;-92
2022/08/23 09:56:53;;;;;;;4.17;3.60;;;;;;;29.85;31.65;99450.03;5007180;28;20460;-94
2022/08/23 09:59:46;;;;;;;4.00;3.30;;;;;;;29.78;30.95;99450.09;4988640;28;20458;-93
2022/08/23 10:02:29;;;;;;;4.20;3.13;;;;;;;29.77;31.46;99452.00;4980011;28;20460;-94
2022/08/23 10:05:14;;;;;;;3.53;3.20;;;;;;;29.95;31.61;99451.16;4985449;28;20468;-94
2022/08/23 10:08:02;;;;;;;;;;;;;;;;;;;;;
2022/08/23 10:10:45;;;;;;;4.77;4.00;;;;;;;30.07;31.36;99442.25;5018715;28;20484;-92
2022/08/23 10:13:22;;;;;;;4.20;3.90;;;;;;;30.19;31.04;99441.25;5017330;28;20532;-91
2022/08/23 10:16:03;;;;;;;4.20;3.80;;;;;;;30.51;30.44;99437.47;5018919;28;20507;-93
2022/08/23 10:18:39;;;;;;;3.97;3.57;;;;;;;30.57;29.77;99429.25;5009065;28;20468;-90
2022/08/23 10:21:32;;;;;;;3.30;2.90;;;;;;;30.61;29.42;99437.75;5016919;28;20488;-90
2022/08/23 10:24:33;;;;;;;4.67;3.50;;;;;;;30.74;29.50;99428.59;5000677;28;20437;-91
2022/08/23 10:30:58;;;;;;;5.27;3.60;;;;;;;30.72;29.11;99423.38;4991966;28;20492;-90
2022/08/23 10:33:45;;;;;;;4.07;3.30;;;;;;;30.76;29.41;99424.56;4990941;28;20932;-93
2022/08/23 10:36:30;;;;;;;4.27;3.87;;;;;;;30.84;29.47;99413.41;4995908;28;20574;-93
2022/08/23 10:38:57;;;;;;;4.40;3.43;;;;;;;31.07;29.23;99417.19;4998467;28;20487;-90
2022/08/23 10:41:29;;;;;;;4.77;3.77;;;;;;;31.23;28.71;99408.31;4993222;28;20499;-91
2022/08/23 10:44:08;;;;;;;3.53;3.23;;;;;;;31.29;28.88;99406.53;4981778;28;20468;-91
2022/08/23 10:46:46;;;;;;;5.73;3.00;;;;;;;31.42;28.91;99406.31;5001281;28;20464;-91
2022/08/23 10:49:27;;;;;;;4.00;3.70;;;;;;;31.47;28.81;99409.16;4999109;28;20503;-95
2022/08/23 10:51:58;;;;;;;5.10;3.50;;;;;;;31.46;28.85;99404.78;5000829;28;20763;-92
2022/08/23 10:54:45;;;;;;;5.53;3.90;;;;;;;31.05;29.10;99406.56;5004948;28;20546;-91
2022/08/23 10:57:23;;;;;;;4.10;3.70;;;;;;;31.06;28.72;99396.56;4995889;28;20452;-91
2022/08/23 11:00:21;;;;;;;3.67;3.37;;;;;;;31.18;29.04;99399.25;4985934;28;20464;-94
2022/08/23 11:03:19;;;;;;;;;;;;;;;;;;;;;
2022/08/23 11:06:55;;;;;;;;;;;;;;;;;;;;;
2022/08/23 11:13:05;;;;;;;3.03;2.83;;;;;;;31.37;29.60;99387.22;4973876;28;21065;-94
2022/08/23 11:16:27;;;;;;;5.00;3.90;;;;;;;31.39;29.54;99390.53;4978568;28;21042;-93
2022/08/23 11:19:05;;;;;;;3.73;3.43;;;;;;;31.40;29.06;99378.59;4966656;28;20472;-92
2022/08/23 11:21:44;;;;;;;3.83;3.23;;;;;;;31.42;28.92;99378.34;4979048;28;20494;-94
2022/08/23 11:24:12;;;;;;;4.40;4.00;;;;;;;31.44;29.39;99376.25;4977918;28;21414;-91
2022/08/23 11:26:40;;;;;;;4.00;3.57;;;;;;;31.39;29.13;99379.66;4978389;28;20448;-92
2022/08/23 11:29:17;;;;;;;;;;;;;;;;;;;;;
2022/08/23 11:32:22;;;;;;;4.00;3.53;;;;;;;31.31;29.29;99374.56;4978069;28;20488;-92
2022/08/23 11:35:04;;;;;;;3.43;3.13;;;;;;;31.36;29.39;99373.88;4960808;28;20579;-94
2022/08/23 11:38:19;;;;;;;3.53;3.20;;;;;;;31.41;29.74;99374.00;4995135;28;20455;-91
2022/08/23 11:41:12;;;;;;;4.70;3.40;;;;;;;31.41;29.52;99374.81;4941271;28;20453;-90
2022/08/23 11:43:44;;;;;;;4.07;3.60;;;;;;;31.39;29.81;99379.66;4980457;28;20463;-92
2022/08/23 11:46:22;;;;;;;3.50;3.20;;;;;;;31.37;29.38;99370.09;4994841;28;20473;-92
2022/08/23 11:49:10;;;;;;;3.93;3.63;;;;;;;31.35;28.32;99367.59;4980966;28;21292;-92
2022/08/23 11:52:12;;;;;;;3.40;3.10;;;;;;;31.28;28.12;99370.44;4980047;28;20949;-93
2022/08/23 11:55:09;;;;;;;;;;;;;;;;;;;;;
2022/08/23 11:58:19;;;;;;;3.73;3.40;;;;;;;31.21;29.16;99367.03;4977463;28;21732;-89
2022/08/23 12:01:06;;;;;;;;;;;;;;;;;;;;;
2022/08/23 12:03:50;;;;;;;4.80;3.00;;;;;;;31.28;29.71;99356.06;4977986;28;20468;-94
2022/08/23 12:06:51;;;;;;;5.13;3.93;;;;;;;31.26;29.33;99353.56;4980067;28;20456;-93
2022/08/23 12:09:22;;;;;;;3.50;3.20;;;;;;;31.19;29.85;99362.91;4978828;28;20475;-92
2022/08/23 12:11:56;;;;;;;3.20;2.90;;;;;;;31.23;29.68;99350.53;4979671;28;20596;-92
2022/08/23 12:14:37;;;;;;;4.00;3.60;;;;;;;31.26;29.28;99350.03;4981601;28;20531;-91
2022/08/23 12:17:19;;;;;;;4.33;3.20;;;;;;;31.33;29.66;99355.34;4981218;28;20534;-93
2022/08/23 12:19:50;;;;;;;6.93;3.40;;;;;;;31.43;29.16;99352.84;4977644;28;20983;-93
2022/08/23 12:22:54;;;;;;;6.20;3.40;;;;;;;31.39;28.76;99346.28;4980396;28;20512;-95
2022/08/23 12:25:30;;;;;;;3.50;3.20;;;;;;;31.32;28.99;99357.22;4978245;28;20856;-94
2022/08/23 12:28:08;;;;;;;3.33;3.00;;;;;;;31.38;28.87;99359.03;4985056;28;20495;-93
2022/08/23 12:31:07;;;;;;;4.40;3.40;;;;;;;31.44;28.56;99352.63;4979242;28;20522;-92
2022/08/23 12:33:52;;;;;;;3.53;3.30;;;;;;;31.44;27.99;99354.53;4979345;28;21251;-92
2022/08/23 12:36:46;;;;;;;3.47;2.87;;;;;;;31.36;27.82;99360.28;4980129;28;20455;-91
2022/08/23 12:39:50;;;;;;;4.93;3.80;;;;;;;31.38;28.13;99345.44;4984647;28;20502;-93
2022/08/23 12:42:29;;;;;;;6.17;3.50;;;;;;;31.36;28.21;99339.41;4986430;28;20436;-92
2022/08/23 12:45:12;;;;;;;3.50;3.20;;;;;;;31.36;28.55;99344.84;4983529;28;20535;-92
2022/08/23 12:47:42;;;;;;;3.73;3.30;;;;;;;31.42;28.48;99345.78;5002946;28;20497;-91
2022/08/23 12:50:15;;;;;;;4.13;3.80;;;;;;;31.47;28.37;99344.00;4987553;28;20475;-92
2022/08/23 12:53:00;;;;;;;4.80;3.10;;;;;;;31.56;27.92;99340.91;4990999;28;20487;-92
2022/08/23 12:55:40;;;;;;;3.73;3.03;;;;;;;31.58;28.06;99333.34;4978315;28;20472;-91
2022/08/23 12:58:14;;;;;;;4.13;3.70;;;;;;;31.63;27.68;99336.97;4979038;28;20487;-94